Time;durP1;ratioP1;P1;durP2;ratioP2;P2;SDS_P1;SDS_P2;PMS_P1;PMS_P2;Temp;Humidity;BMP_temperature;BMP_pressure;BME280_temperature;BME280_humidity;BME280_pressure;Samples;Min_cycle;Max_cycle;Signal;HPM_P1;HPM_P2
2022/06/07 00:01:38;;;;;;;3.00;2.70;;;23.40;51.10;;;;;;4884155;29;20491;-89
2022/06/07 00:04:06;;;;;;;2.93;2.73;;;23.40;51.10;;;;;;4893290;29;20460;-88
2022/06/07 00:06:33;;;;;;;3.43;3.03;;;23.40;51.20;;;;;;4867240;29;20511;-87
2022/06/07 00:09:00;;;;;;;3.00;2.80;;;23.40;51.20;;;;;;4875544;29;20460;-88
2022/06/07 00:11:27;;;;;;;3.40;3.10;;;23.40;51.40;;;;;;4889521;29;20817;-88
2022/06/07 00:13:56;;;;;;;3.07;2.87;;;23.40;51.60;;;;;;4881802;29;20468;-87
2022/06/07 00:16:23;;;;;;;3.70;3.17;;;23.30;51.50;;;;;;4874707;29;20496;-89
2022/06/07 00:18:50;;;;;;;3.33;3.03;;;23.30;51.60;;;;;;4877726;29;20538;-86
2022/06/07 00:21:16;;;;;;;3.40;3.10;;;23.30;51.70;;;;;;4887357;29;20456;-88
2022/06/07 00:23:43;;;;;;;2.93;2.73;;;23.30;52.10;;;;;;4876249;29;20451;-88
2022/06/07 00:26:11;;;;;;;3.87;2.97;;;23.20;51.80;;;;;;4891744;29;20464;-89
2022/06/07 00:28:38;;;;;;;3.20;2.90;;;23.20;51.10;;;;;;4890405;29;20460;-88
2022/06/07 00:31:06;;;;;;;3.17;2.77;;;23.20;51.30;;;;;;4893177;29;20471;-89
2022/06/07 00:33:33;;;;;;;2.93;2.60;;;23.20;51.50;;;;;;4888692;29;21015;-89
2022/06/07 00:36:00;;;;;;;4.17;2.93;;;23.20;51.50;;;;;;4854256;29;20455;-89
2022/06/07 00:38:27;;;;;;;3.13;2.93;;;23.20;51.70;;;;;;4894684;29;21002;-88
2022/06/07 00:40:54;;;;;;;3.40;2.90;;;23.20;51.40;;;;;;4867308;29;20508;-87
2022/06/07 00:43:25;;;;;;;3.00;2.80;;;23.20;52.00;;;;;;4893528;29;21307;-88
2022/06/07 00:45:52;;;;;;;3.07;2.43;;;23.20;51.10;;;;;;4884392;29;20447;-89
2022/06/07 00:48:21;;;;;;;2.93;2.73;;;23.20;51.10;;;;;;4875863;29;20456;-88
2022/06/07 00:50:52;;;;;;;3.13;2.93;;;23.20;51.00;;;;;;4868972;29;20460;-89
2022/06/07 00:53:27;;;;;;;3.17;2.97;;;23.20;51.30;;;;;;4892378;29;20478;-89
2022/06/07 00:55:58;;;;;;;3.90;2.87;;;23.20;51.60;;;;;;4876441;29;20832;-89
2022/06/07 00:58:27;;;;;;;3.40;3.20;;;23.20;51.90;;;;;;4877851;29;20560;-88
2022/06/07 01:00:54;;;;;;;6.27;3.43;;;23.10;52.00;;;;;;4852171;29;20452;-89
2022/06/07 01:03:24;;;;;;;3.70;3.40;;;23.10;52.40;;;;;;4892018;29;20575;-88
2022/06/07 01:05:54;;;;;;;2.83;2.63;;;23.00;52.50;;;;;;4865788;29;20455;-88
2022/06/07 01:11:12;;;;;;;3.30;3.07;;;23.10;52.20;;;;;;4858199;29;20441;-88
2022/06/07 01:13:40;;;;;;;4.60;2.97;;;23.00;51.20;;;;;;4866065;29;20523;-89
2022/06/07 01:16:13;;;;;;;4.47;2.83;;;22.90;51.30;;;;;;4895443;29;20460;-89
2022/06/07 01:18:44;;;;;;;5.67;3.13;;;23.00;51.60;;;;;;4864409;29;20467;-89
2022/06/07 01:21:21;;;;;;;3.67;3.20;;;23.00;51.70;;;;;;4865827;29;20563;-88
2022/06/07 01:23:50;;;;;;;6.37;2.83;;;23.00;51.60;;;;;;4882347;29;20461;-88
2022/06/07 01:26:22;;;;;;;2.93;2.73;;;23.00;51.60;;;;;;4880662;29;20455;-88
2022/06/07 01:28:50;;;;;;;3.40;3.10;;;23.00;51.70;;;;;;4881072;29;20460;-87
2022/06/07 01:31:17;;;;;;;3.30;2.70;;;23.00;52.00;;;;;;4876807;29;20550;-87
2022/06/07 01:33:44;;;;;;;2.83;2.63;;;23.00;52.20;;;;;;4867993;29;20452;-88
2022/06/07 01:36:13;;;;;;;3.50;3.20;;;23.00;52.40;;;;;;4877714;29;20563;-88
2022/06/07 01:38:45;;;;;;;3.67;3.27;;;22.90;52.70;;;;;;4879009;29;20468;-88
2022/06/07 01:43:59;;;;;;;4.00;3.60;;;23.00;53.50;;;;;;4856868;29;20431;-88
2022/06/07 01:46:28;;;;;;;3.57;3.27;;;22.90;53.40;;;;;;4879848;29;20492;-90
2022/06/07 01:48:55;;;;;;;2.77;2.37;;;22.90;53.00;;;;;;4871487;29;20464;-88
2022/06/07 01:51:22;;;;;;;3.83;2.90;;;22.90;52.70;;;;;;4886410;29;20521;-89
2022/06/07 01:53:51;;;;;;;6.37;2.30;;;22.80;52.40;;;;;;4880103;29;20456;-89
2022/06/07 01:56:19;;;;;;;2.67;2.47;;;22.60;51.50;;;;;;4878845;29;20455;-88
2022/06/07 01:58:50;;;;;;;3.93;2.80;;;22.10;51.00;;;;;;4869762;29;20850;-86
2022/06/07 02:01:17;;;;;;;5.20;2.53;;;21.80;52.30;;;;;;4871083;29;20456;-88
2022/06/07 02:03:45;;;;;;;4.00;2.70;;;21.70;52.60;;;;;;4886987;29;20508;-87
2022/06/07 02:06:13;;;;;;;4.00;2.97;;;21.70;53.90;;;;;;4862649;29;20981;-88
2022/06/07 02:08:43;;;;;;;4.83;2.33;;;21.80;53.20;;;;;;4881126;29;20461;-90
2022/06/07 02:11:16;;;;;;;2.27;2.07;;;21.90;53.80;;;;;;4881304;29;20444;-88
2022/06/07 02:13:48;;;;;;;2.60;2.40;;;22.00;54.00;;;;;;4880094;29;20455;-89
2022/06/07 02:16:16;;;;;;;3.00;2.67;;;22.20;54.00;;;;;;4872821;29;21524;-88
2022/06/07 02:18:43;;;;;;;5.40;3.50;;;22.30;54.50;;;;;;4871963;29;20568;-88
2022/06/07 02:21:22;;;;;;;3.20;2.90;;;22.30;55.00;;;;;;4892153;29;20451;-90
2022/06/07 02:23:50;;;;;;;4.23;2.90;;;22.40;55.10;;;;;;4872013;29;20454;-90
2022/06/07 02:26:22;;;;;;;2.87;2.23;;;22.40;54.90;;;;;;4850822;29;20465;-89
2022/06/07 02:28:53;;;;;;;2.53;2.33;;;22.40;54.70;;;;;;4853671;29;20444;-90
2022/06/07 02:31:21;;;;;;;3.50;2.60;;;22.40;54.80;;;;;;4855057;29;20452;-91
2022/06/07 02:33:48;;;;;;;7.20;3.60;;;22.40;55.00;;;;;;4868318;29;20948;-90
2022/06/07 02:36:17;;;;;;;6.03;2.33;;;22.30;54.60;;;;;;4883070;29;20448;-89
2022/06/07 02:38:45;;;;;;;8.00;2.50;;;22.00;53.40;;;;;;4876800;29;20476;-92
2022/06/07 02:41:19;;;;;;;2.43;2.23;;;22.00;55.00;;;;;;4884995;29;20452;-91
2022/06/07 02:43:46;;;;;;;3.13;2.50;;;22.00;54.80;;;;;;4888290;29;20457;-90
2022/06/07 02:46:13;;;;;;;2.00;1.90;;;22.00;54.60;;;;;;4874405;29;20904;-91
2022/06/07 02:48:41;;;;;;;2.30;2.20;;;21.90;54.00;;;;;;4880580;29;21173;-91
2022/06/07 02:51:08;;;;;;;2.60;2.40;;;21.90;55.10;;;;;;4885009;29;20456;-91
2022/06/07 02:53:35;;;;;;;2.33;2.10;;;21.90;55.40;;;;;;4876540;29;20575;-92
2022/06/07 02:56:03;;;;;;;2.57;2.33;;;21.90;55.20;;;;;;4858869;29;20481;-90
2022/06/07 02:58:32;;;;;;;2.57;2.37;;;21.90;55.40;;;;;;4876378;29;20488;-91
2022/06/07 03:01:02;;;;;;;2.83;2.13;;;21.90;55.30;;;;;;4874339;29;20464;-91
2022/06/07 03:03:36;;;;;;;2.43;1.90;;;21.90;55.00;;;;;;4859287;29;20480;-92
2022/06/07 03:06:04;;;;;;;2.33;2.13;;;21.90;54.60;;;;;;4888970;29;20455;-90
2022/06/07 03:08:31;;;;;;;2.50;2.30;;;21.90;54.40;;;;;;4892201;29;20507;-90
2022/06/07 03:11:01;;;;;;;2.27;2.07;;;21.90;54.50;;;;;;4866318;29;20539;-90
2022/06/07 03:13:29;;;;;;;3.00;2.30;;;21.90;54.90;;;;;;4881780;29;20563;-90
2022/06/07 03:15:59;;;;;;;2.83;2.63;;;21.90;55.00;;;;;;4895527;29;20492;-91
2022/06/07 03:18:26;;;;;;;2.23;2.03;;;21.90;55.20;;;;;;4885027;29;20508;-92
2022/06/07 03:20:53;;;;;;;2.47;2.23;;;21.80;55.30;;;;;;4895876;29;20525;-91
2022/06/07 03:23:23;;;;;;;2.70;2.50;;;21.80;55.30;;;;;;4857991;29;20990;-90
2022/06/07 03:26:06;;;;;;;3.60;2.53;;;21.80;55.60;;;;;;4874531;29;20547;-89
2022/06/07 03:28:37;;;;;;;3.10;2.60;;;21.70;55.30;;;;;;4874219;29;20507;-90
2022/06/07 03:31:12;;;;;;;2.77;2.50;;;21.70;54.90;;;;;;4867716;29;20785;-90
2022/06/07 03:33:41;;;;;;;2.70;2.50;;;21.60;55.00;;;;;;4859437;29;20463;-90
2022/06/07 03:36:12;;;;;;;2.83;2.60;;;21.60;55.20;;;;;;4872984;29;20460;-90
2022/06/07 03:38:40;;;;;;;2.60;2.40;;;21.50;55.70;;;;;;4871742;29;20476;-90
2022/06/07 03:41:08;;;;;;;9.43;2.70;;;21.60;55.70;;;;;;4881851;29;20453;-90
2022/06/07 03:43:37;;;;;;;3.53;2.50;;;21.60;55.90;;;;;;4875618;29;20568;-89
2022/06/07 03:46:10;;;;;;;2.53;2.20;;;21.60;56.00;;;;;;4881492;29;20950;-91
2022/06/07 03:48:38;;;;;;;2.83;2.50;;;21.60;56.40;;;;;;4867260;29;20524;-90
2022/06/07 03:51:06;;;;;;;3.03;2.40;;;21.50;55.80;;;;;;4869365;29;20964;-89
2022/06/07 03:53:36;;;;;;;4.73;3.27;;;21.40;56.10;;;;;;4896646;29;20481;-90
2022/06/07 03:56:03;;;;;;;2.57;2.37;;;21.10;55.60;;;;;;4875090;29;20480;-91
2022/06/07 03:58:37;;;;;;;3.50;2.63;;;21.10;56.70;;;;;;4866860;29;20472;-88
2022/06/07 04:01:04;;;;;;;3.30;3.00;;;21.20;56.80;;;;;;4883348;29;20456;-90
2022/06/07 04:03:33;;;;;;;3.10;2.90;;;21.30;56.70;;;;;;4882312;29;21267;-91
2022/06/07 04:06:02;;;;;;;5.67;4.00;;;21.40;56.70;;;;;;4896301;29;20459;-90
2022/06/07 04:08:32;;;;;;;3.20;2.90;;;21.50;56.90;;;;;;4864113;29;20511;-91
2022/06/07 04:11:02;;;;;;;3.57;2.47;;;21.50;56.80;;;;;;4883674;29;20444;-91
2022/06/07 04:13:44;;;;;;;2.70;2.50;;;21.20;56.90;;;;;;4880581;29;20456;-91
2022/06/07 04:16:15;;;;;;;4.80;3.00;;;21.10;57.90;;;;;;4895381;29;21014;-90
2022/06/07 04:18:51;;;;;;;3.20;2.30;;;21.00;57.60;;;;;;4856552;29;20475;-91
2022/06/07 04:21:20;;;;;;;2.77;2.57;;;21.10;56.90;;;;;;4884101;29;20554;-89
2022/06/07 04:23:47;;;;;;;3.17;2.80;;;21.30;57.50;;;;;;4899127;29;20461;-90
2022/06/07 04:26:16;;;;;;;3.30;2.60;;;21.40;57.70;;;;;;4878106;29;20460;-91
2022/06/07 04:28:46;;;;;;;3.27;2.97;;;21.50;57.60;;;;;;4871442;29;20989;-90
2022/06/07 04:31:17;;;;;;;3.03;2.83;;;21.50;57.70;;;;;;4865391;29;20457;-90
2022/06/07 04:33:45;;;;;;;3.33;2.80;;;21.60;57.80;;;;;;4872660;29;20463;-90
2022/06/07 04:36:19;;;;;;;4.10;3.13;;;21.70;57.60;;;;;;4863834;29;20867;-91
2022/06/07 04:38:48;;;;;;;4.17;2.70;;;21.70;57.30;;;;;;4851421;29;20516;-91
2022/06/07 04:41:19;;;;;;;2.80;2.60;;;21.80;57.40;;;;;;4873115;29;21030;-89
2022/06/07 04:43:52;;;;;;;3.70;3.40;;;21.60;57.70;;;;;;4872238;29;21207;-90
2022/06/07 04:46:22;;;;;;;4.60;3.00;;;21.60;57.50;;;;;;4866545;29;20459;-90
2022/06/07 04:48:52;;;;;;;5.07;3.00;;;21.70;57.90;;;;;;4897200;29;20460;-91
2022/06/07 04:51:27;;;;;;;3.57;3.20;;;21.70;57.40;;;;;;4886718;29;20476;-90
2022/06/07 04:54:16;;;;;;;3.03;2.83;;;21.60;57.20;;;;;;4898390;29;20455;-90
2022/06/07 04:56:47;;;;;;;3.60;3.30;;;21.70;57.40;;;;;;4894238;29;20464;-92
2022/06/07 04:59:14;;;;;;;3.63;3.17;;;21.70;57.10;;;;;;4869789;29;20564;-92
2022/06/07 05:01:51;;;;;;;2.93;2.73;;;21.80;57.80;;;;;;4867781;29;20483;-90
2022/06/07 05:04:23;;;;;;;2.80;2.40;;;21.80;57.80;;;;;;4872175;29;20464;-91
2022/06/07 05:06:51;;;;;;;6.03;3.60;;;21.90;57.80;;;;;;4887659;29;20464;-91
2022/06/07 05:09:25;;;;;;;4.23;3.40;;;21.90;57.70;;;;;;4886843;29;20815;-92
2022/06/07 05:12:03;;;;;;;4.07;2.63;;;22.10;57.80;;;;;;4883005;29;20479;-90
2022/06/07 05:14:35;;;;;;;2.67;2.40;;;22.10;56.80;;;;;;4878520;29;20451;-91
2022/06/07 05:17:03;;;;;;;2.67;2.33;;;22.10;56.00;;;;;;4881596;29;20833;-91
2022/06/07 05:19:33;;;;;;;2.80;2.60;;;22.20;56.90;;;;;;4862965;29;20484;-91
2022/06/07 05:22:07;;;;;;;2.13;1.93;;;22.20;56.80;;;;;;4897506;29;20492;-90
2022/06/07 05:24:38;;;;;;;2.60;2.50;;;22.30;56.60;;;;;;4880363;29;21187;-91
2022/06/07 05:27:07;;;;;;;2.67;2.47;;;22.20;56.80;;;;;;4897135;29;20467;-91
2022/06/07 05:29:46;;;;;;;4.40;3.33;;;22.20;56.80;;;;;;4870693;29;20452;-90
2022/06/07 05:32:16;;;;;;;2.60;2.23;;;22.20;57.10;;;;;;4855277;29;20477;-91
2022/06/07 05:34:48;;;;;;;3.00;2.80;;;22.10;57.20;;;;;;4854108;29;20498;-91
2022/06/07 05:37:20;;;;;;;2.60;2.40;;;21.90;57.20;;;;;;4872156;29;20464;-89
2022/06/07 05:39:51;;;;;;;4.70;2.60;;;22.00;57.40;;;;;;4854340;29;20480;-91
2022/06/07 05:42:19;;;;;;;4.20;2.70;;;22.20;57.60;;;;;;4864604;29;20526;-91
2022/06/07 05:44:49;;;;;;;3.30;3.00;;;22.30;57.30;;;;;;4878004;29;20465;-91
2022/06/07 05:47:16;;;;;;;3.03;2.73;;;22.30;56.60;;;;;;4848877;29;20576;-89
2022/06/07 05:49:54;;;;;;;3.00;2.80;;;22.30;57.00;;;;;;4886614;29;20460;-91
2022/06/07 05:52:25;;;;;;;3.00;2.80;;;22.40;57.10;;;;;;4880418;29;20536;-91
2022/06/07 05:54:54;;;;;;;4.13;2.63;;;22.30;56.40;;;;;;4876861;29;20459;-90
2022/06/07 05:57:21;;;;;;;3.30;2.27;;;22.30;56.40;;;;;;4874443;29;20468;-90
2022/06/07 05:59:49;;;;;;;3.00;2.00;;;22.40;56.70;;;;;;4881314;29;21272;-89
2022/06/07 06:02:18;;;;;;;9.93;2.60;;;22.20;55.40;;;;;;4876273;29;20556;-90
2022/06/07 06:04:45;;;;;;;2.20;2.00;;;22.20;55.80;;;;;;4889267;29;20468;-91
2022/06/07 06:07:14;;;;;;;2.47;2.27;;;22.10;55.20;;;;;;4867700;29;20452;-91
2022/06/07 06:12:41;;;;;;;1.87;1.70;;;22.30;55.90;;;;;;4878027;29;21039;-90
2022/06/07 06:15:13;;;;;;;2.53;1.80;;;22.20;54.70;;;;;;4857353;29;20452;-91
2022/06/07 06:17:41;;;;;;;2.07;1.50;;;22.20;54.80;;;;;;4873826;29;20987;-91
2022/06/07 06:20:16;;;;;;;5.23;2.30;;;22.30;55.50;;;;;;4875913;29;20467;-89
2022/06/07 06:22:49;;;;;;;1.60;1.50;;;22.40;54.20;;;;;;4872626;29;20502;-89
2022/06/07 06:25:17;;;;;;;6.30;1.80;;;22.50;54.50;;;;;;4872786;29;20534;-88
2022/06/07 06:27:46;;;;;;;2.23;2.00;;;22.50;54.30;;;;;;4880778;29;20544;-91
2022/06/07 06:30:13;;;;;;;2.00;1.80;;;22.60;53.70;;;;;;4857058;29;20491;-92
2022/06/07 06:32:48;;;;;;;2.60;2.37;;;22.70;53.50;;;;;;4887846;29;20504;-90
2022/06/07 06:35:20;;;;;;;1.83;1.73;;;22.70;53.90;;;;;;4870830;29;20511;-90
2022/06/07 06:37:47;;;;;;;2.37;1.73;;;22.70;54.20;;;;;;4873369;29;20451;-90
2022/06/07 06:40:17;;;;;;;1.70;1.60;;;22.70;54.10;;;;;;4854865;29;20471;-91
2022/06/07 06:42:52;;;;;;;1.70;1.60;;;22.60;53.30;;;;;;4868202;29;20488;-90
2022/06/07 06:45:46;;;;;;;2.00;1.80;;;22.70;53.70;;;;;;4895380;29;20478;-90
2022/06/07 06:48:18;;;;;;;2.40;1.50;;;23.00;53.50;;;;;;4887714;29;20469;-90
2022/06/07 06:50:48;;;;;;;1.53;1.40;;;23.30;53.90;;;;;;4866412;29;20544;-90
2022/06/07 06:53:15;;;;;;;2.20;1.70;;;23.40;52.00;;;;;;4871796;29;21250;-90
2022/06/07 06:55:48;;;;;;;2.73;1.70;;;23.30;52.00;;;;;;4869762;29;20969;-90
2022/06/07 06:58:16;;;;;;;1.70;1.60;;;23.30;52.40;;;;;;4851671;29;20464;-91
2022/06/07 07:00:43;;;;;;;1.50;1.40;;;23.20;51.80;;;;;;4863923;29;20574;-90
2022/06/07 07:03:10;;;;;;;2.00;1.60;;;23.10;51.60;;;;;;4867363;29;20595;-91
2022/06/07 07:05:37;;;;;;;2.50;1.70;;;23.40;51.90;;;;;;4869769;29;20456;-90
2022/06/07 07:08:10;;;;;;;2.57;1.57;;;23.50;51.90;;;;;;4877471;29;20452;-90
2022/06/07 07:10:37;;;;;;;3.83;1.50;;;23.50;50.30;;;;;;4878668;29;20471;-90
2022/06/07 07:13:07;;;;;;;1.63;1.53;;;23.60;50.60;;;;;;4880488;29;20560;-89
2022/06/07 07:15:37;;;;;;;3.90;1.57;;;23.70;50.70;;;;;;4881960;29;20539;-90
2022/06/07 07:18:09;;;;;;;3.00;1.70;;;23.70;50.90;;;;;;4868789;29;20469;-89
2022/06/07 07:20:43;;;;;;;3.03;1.50;;;23.90;50.30;;;;;;4865889;29;20476;-91
2022/06/07 07:23:10;;;;;;;1.30;1.20;;;23.90;49.30;;;;;;4869128;29;21349;-90
2022/06/07 07:25:38;;;;;;;1.80;1.70;;;23.90;49.20;;;;;;4875774;29;20486;-89
2022/06/07 07:28:07;;;;;;;5.43;2.03;;;24.20;50.20;;;;;;4876831;29;20888;-89
2022/06/07 07:30:35;;;;;;;1.43;1.33;;;24.30;48.60;;;;;;4877267;29;20636;-89
2022/06/07 07:33:02;;;;;;;3.67;1.90;;;24.30;48.20;;;;;;4883362;29;20483;-90
2022/06/07 07:35:30;;;;;;;1.63;1.53;;;24.40;49.00;;;;;;4892864;29;20467;-89
2022/06/07 07:38:04;;;;;;;2.00;1.40;;;24.50;49.10;;;;;;4878738;29;20516;-90
2022/06/07 07:40:33;;;;;;;1.63;1.50;;;24.30;49.30;;;;;;4886087;29;20479;-89
2022/06/07 07:43:05;;;;;;;3.57;1.53;;;24.40;48.90;;;;;;4875491;29;20487;-89
2022/06/07 07:45:37;;;;;;;3.67;1.70;;;24.60;48.10;;;;;;4853288;29;20459;-90
2022/06/07 07:48:05;;;;;;;2.03;1.50;;;24.90;48.20;;;;;;4885335;29;20519;-90
2022/06/07 07:50:39;;;;;;;2.10;1.60;;;25.10;47.70;;;;;;4891300;29;20526;-90
2022/06/07 07:53:07;;;;;;;1.50;1.40;;;25.10;46.40;;;;;;4878196;29;20476;-90
2022/06/07 07:55:34;;;;;;;5.80;1.47;;;25.20;45.90;;;;;;4892381;29;20460;-90
2022/06/07 07:58:05;;;;;;;1.53;1.43;;;25.20;46.90;;;;;;4865132;29;20495;-88
2022/06/07 08:00:34;;;;;;;2.13;1.30;;;25.30;46.30;;;;;;4874646;29;20656;-89
2022/06/07 08:03:09;;;;;;;1.50;1.40;;;25.40;43.50;;;;;;4876979;29;20510;-89
2022/06/07 08:05:44;;;;;;;6.70;1.50;;;25.30;42.80;;;;;;4873247;29;20468;-88
2022/06/07 08:08:11;;;;;;;1.20;1.10;;;25.40;42.00;;;;;;4888942;29;20973;-88
2022/06/07 08:10:40;;;;;;;1.50;1.20;;;25.40;41.00;;;;;;4859443;29;20524;-89
2022/06/07 08:13:08;;;;;;;1.33;1.17;;;25.50;41.60;;;;;;4893746;29;20471;-89
2022/06/07 08:15:35;;;;;;;1.40;1.27;;;25.60;41.10;;;;;;4873750;29;20469;-88
2022/06/07 08:18:04;;;;;;;1.67;1.43;;;25.50;41.10;;;;;;4876118;29;20452;-88
2022/06/07 08:20:36;;;;;;;2.07;1.30;;;25.70;40.90;;;;;;4889453;29;20479;-88
2022/06/07 08:23:03;;;;;;;1.30;1.10;;;25.80;40.00;;;;;;4872837;29;20483;-88
2022/06/07 08:25:31;;;;;;;2.13;1.20;;;25.80;40.00;;;;;;4873868;29;20453;-89
2022/06/07 08:27:58;;;;;;;1.67;1.17;;;25.90;40.00;;;;;;4885040;29;20459;-88
2022/06/07 08:30:25;;;;;;;1.53;1.20;;;25.90;39.70;;;;;;4876987;29;20456;-89
2022/06/07 08:32:52;;;;;;;1.47;1.10;;;25.90;39.90;;;;;;4863022;29;20480;-88
2022/06/07 08:38:06;;;;;;;1.47;1.37;;;25.80;38.90;;;;;;4868002;29;20554;-89
2022/06/07 08:40:36;;;;;;;2.07;1.00;;;25.80;39.20;;;;;;4894190;29;20484;-88
2022/06/07 08:43:16;;;;;;;1.37;1.27;;;25.70;39.10;;;;;;4864790;29;20472;-88
2022/06/07 08:45:44;;;;;;;2.63;1.27;;;25.80;40.30;;;;;;4892857;29;20469;-88
2022/06/07 08:48:15;;;;;;;1.83;1.20;;;26.00;39.40;;;;;;4866616;29;20460;-88
2022/06/07 08:50:45;;;;;;;2.13;1.10;;;26.20;39.00;;;;;;4875657;29;21113;-88
2022/06/07 08:53:17;;;;;;;2.23;1.10;;;26.30;39.80;;;;;;4888222;29;20480;-88
2022/06/07 08:55:47;;;;;;;2.70;1.10;;;26.20;38.10;;;;;;4873248;29;20467;-88
2022/06/07 08:58:18;;;;;;;5.43;1.20;;;26.00;37.90;;;;;;4875713;29;20516;-89
2022/06/07 09:00:49;;;;;;;1.60;1.43;;;26.20;36.70;;;;;;4874274;29;20476;-88
2022/06/07 09:03:45;;;;;;;1.33;1.00;;;26.20;38.60;;;;;;4875958;29;20969;-88
2022/06/07 09:06:18;;;;;;;1.53;1.30;;;26.40;38.10;;;;;;4886916;29;20457;-88
2022/06/07 09:08:50;;;;;;;3.50;1.13;;;26.40;35.40;;;;;;4875349;29;20605;-88
2022/06/07 09:14:17;;;;;;;2.63;1.50;;;26.50;36.70;;;;;;4891094;29;21178;-88
2022/06/07 09:16:45;;;;;;;1.40;1.30;;;26.50;36.70;;;;;;4892879;29;21258;-87
2022/06/07 09:19:16;;;;;;;1.30;1.20;;;26.50;36.40;;;;;;4875965;29;20464;-89
2022/06/07 09:21:45;;;;;;;1.20;1.10;;;26.50;37.20;;;;;;4888493;29;20496;-86
2022/06/07 09:24:26;;;;;;;4.63;1.47;;;26.60;36.80;;;;;;4874927;29;20453;-89
2022/06/07 09:27:11;;;;;;;0.80;0.80;;;26.70;36.20;;;;;;4891167;29;20459;-88
2022/06/07 09:29:39;;;;;;;1.10;1.00;;;26.70;36.60;;;;;;4850982;29;20586;-87
2022/06/07 09:32:12;;;;;;;2.33;1.17;;;26.80;36.30;;;;;;4889859;29;20515;-87
2022/06/07 09:34:50;;;;;;;1.90;1.40;;;26.70;34.60;;;;;;4890739;29;20452;-88
2022/06/07 09:37:21;;;;;;;1.20;1.10;;;26.50;35.70;;;;;;4873139;29;20468;-88
2022/06/07 09:39:56;;;;;;;1.20;1.10;;;26.10;35.80;;;;;;4890470;29;20607;-88
2022/06/07 09:42:26;;;;;;;2.37;1.00;;;26.00;35.30;;;;;;4876660;29;21002;-87
2022/06/07 09:44:58;;;;;;;2.70;1.20;;;26.10;36.20;;;;;;4873570;29;20465;-88
2022/06/07 09:47:27;;;;;;;1.13;1.03;;;26.20;35.50;;;;;;4895597;29;20484;-88
2022/06/07 09:49:58;;;;;;;1.90;1.07;;;26.50;36.10;;;;;;4878345;29;20459;-88
2022/06/07 09:52:29;;;;;;;1.23;1.00;;;26.90;34.30;;;;;;4882175;29;20498;-87
2022/06/07 09:55:00;;;;;;;1.13;1.03;;;26.90;34.30;;;;;;4876882;29;20660;-88
2022/06/07 09:57:36;;;;;;;1.10;1.00;;;27.20;34.80;;;;;;4894446;29;20456;-88
2022/06/07 10:00:17;;;;;;;1.07;0.97;;;27.50;34.80;;;;;;4863737;29;20495;-87
2022/06/07 10:03:14;;;;;;;2.00;1.30;;;27.70;33.30;;;;;;4868848;29;20482;-88
2022/06/07 10:05:46;;;;;;;1.93;1.00;;;28.00;34.40;;;;;;4893836;29;20463;-87
2022/06/07 10:08:37;;;;;;;1.50;1.40;;;28.00;33.80;;;;;;4869895;29;20489;-88
2022/06/07 10:11:11;;;;;;;2.23;1.10;;;27.90;33.20;;;;;;4878466;29;20481;-87
2022/06/07 10:13:51;;;;;;;1.20;1.00;;;27.70;33.50;;;;;;4877662;29;20486;-88
2022/06/07 10:16:26;;;;;;;1.37;1.27;;;27.70;34.10;;;;;;4895575;29;22073;-89
2022/06/07 10:19:02;;;;;;;1.10;1.00;;;27.80;33.50;;;;;;4878269;29;20470;-87
2022/06/07 10:22:04;;;;;;;1.33;1.23;;;27.70;33.70;;;;;;4879695;29;20511;-88
2022/06/07 10:24:42;;;;;;;3.13;1.40;;;27.60;33.60;;;;;;4867754;29;20546;-88
2022/06/07 10:27:19;;;;;;;2.13;1.33;;;27.60;34.20;;;;;;4880996;29;21293;-88
2022/06/07 10:30:22;;;;;;;2.57;1.60;;;27.90;35.10;;;;;;4877858;29;21306;-88
2022/06/07 10:33:24;;;;;;;1.17;1.07;;;27.50;33.60;;;;;;4817100;29;20479;-88
2022/06/07 10:35:58;;;;;;;1.80;1.30;;;27.20;33.20;;;;;;4799981;29;20460;-88
2022/06/07 10:38:42;;;;;;;1.67;1.10;;;26.80;34.30;;;;;;4852588;29;20563;-88
2022/06/07 10:41:18;;;;;;;1.60;1.40;;;26.80;36.50;;;;;;4888600;29;21070;-88
2022/06/07 10:43:54;;;;;;;1.27;1.00;;;26.60;35.20;;;;;;4897583;29;20516;-88
2022/06/07 10:46:22;;;;;;;1.80;1.40;;;26.60;35.60;;;;;;4878664;29;20487;-87
2022/06/07 10:48:59;;;;;;;1.30;1.20;;;26.70;35.00;;;;;;4895520;29;20478;-87
2022/06/07 10:54:21;;;;;;;0.93;0.93;;;27.00;36.30;;;;;;4876833;29;20440;-88
2022/06/07 10:56:57;;;;;;;1.40;1.30;;;27.60;35.80;;;;;;4895258;29;20460;-88
2022/06/07 10:59:27;;;;;;;5.37;1.23;;;28.10;34.30;;;;;;4891675;29;20447;-88
2022/06/07 11:02:01;;;;;;;1.63;1.50;;;28.60;33.50;;;;;;4895980;29;20492;-87
2022/06/07 11:10:27;;;;;;;1.57;1.23;;;28.30;33.00;;;;;;4794278;29;20439;-89
2022/06/07 11:13:00;;;;;;;1.40;1.20;;;28.40;32.20;;;;;;4826757;29;20479;-88
2022/06/07 11:15:38;;;;;;;1.23;1.13;;;28.50;32.70;;;;;;4856202;29;20460;-88
2022/06/07 11:18:10;;;;;;;1.47;1.37;;;27.90;31.60;;;;;;4877909;29;20457;-88
2022/06/07 11:20:49;;;;;;;1.87;1.50;;;27.50;32.20;;;;;;4865458;29;20484;-88
2022/06/07 11:23:29;;;;;;;1.10;1.00;;;27.60;32.70;;;;;;4891089;29;20484;-88
2022/06/07 11:26:02;;;;;;;1.20;1.10;;;27.80;32.40;;;;;;4861854;29;20495;-88
2022/06/07 11:28:34;;;;;;;1.83;1.10;;;27.80;32.80;;;;;;4895777;29;20460;-87
2022/06/07 11:31:22;;;;;;;6.60;1.30;;;27.40;32.40;;;;;;4892902;29;20463;-87
2022/06/07 11:34:12;;;;;;;1.20;1.10;;;27.40;33.30;;;;;;4875761;29;20477;-88
2022/06/07 11:36:41;;;;;;;1.20;1.10;;;27.30;32.80;;;;;;4863346;29;20467;-88
2022/06/07 11:39:28;;;;;;;1.43;1.20;;;27.20;33.20;;;;;;4891323;29;20585;-87
2022/06/07 11:41:57;;;;;;;1.50;1.27;;;27.20;33.10;;;;;;4894634;29;21140;-88
2022/06/07 11:44:35;;;;;;;1.40;1.30;;;27.10;33.30;;;;;;4891562;29;20570;-87
2022/06/07 11:47:22;;;;;;;1.50;1.37;;;27.00;32.80;;;;;;4876052;29;20464;-88
2022/06/07 11:50:02;;;;;;;2.17;1.10;;;27.20;33.10;;;;;;4868759;29;20465;-88
2022/06/07 11:52:32;;;;;;;1.40;1.30;;;27.30;33.60;;;;;;4861862;29;20492;-88
2022/06/07 11:55:08;;;;;;;1.20;1.10;;;27.30;33.10;;;;;;4873676;29;20459;-88
2022/06/07 11:57:37;;;;;;;2.70;0.90;;;27.30;32.80;;;;;;4876534;29;20882;-88
2022/06/07 12:00:39;;;;;;;1.43;1.10;;;27.30;32.40;;;;;;4876114;29;20456;-88
2022/06/07 12:03:34;;;;;;;1.30;1.20;;;27.40;33.00;;;;;;4894659;29;20506;-89
2022/06/07 12:06:28;;;;;;;1.73;1.20;;;27.30;33.10;;;;;;4892475;29;20456;-88
2022/06/07 12:09:03;;;;;;;1.50;1.40;;;27.40;33.50;;;;;;4860502;29;20469;-87
2022/06/07 12:11:34;;;;;;;1.73;1.20;;;27.50;33.40;;;;;;4874916;29;20447;-88
2022/06/07 12:14:18;;;;;;;1.60;1.30;;;27.50;34.60;;;;;;4879156;29;20551;-87
2022/06/07 12:16:54;;;;;;;1.77;1.50;;;27.50;34.30;;;;;;4878158;29;20464;-88
2022/06/07 12:19:26;;;;;;;3.57;1.40;;;27.80;33.70;;;;;;4890936;29;20460;-87
2022/06/07 12:21:57;;;;;;;5.13;1.53;;;27.90;33.50;;;;;;4893617;29;20489;-88
2022/06/07 12:24:26;;;;;;;2.03;1.30;;;28.00;33.70;;;;;;4875637;29;21370;-88
2022/06/07 12:26:53;;;;;;;1.53;1.27;;;28.20;33.30;;;;;;4864285;29;20934;-87
2022/06/07 12:29:23;;;;;;;1.87;1.40;;;28.20;34.30;;;;;;4875027;29;20460;-86
2022/06/07 12:31:52;;;;;;;1.77;1.23;;;28.10;32.60;;;;;;4879720;29;20472;-87
2022/06/07 12:34:22;;;;;;;2.73;2.53;;;27.90;33.60;;;;;;4890026;29;20586;-88
2022/06/07 12:36:57;;;;;;;1.40;1.30;;;28.20;34.00;;;;;;4863806;29;20488;-87
2022/06/07 12:39:24;;;;;;;1.37;1.10;;;28.40;33.40;;;;;;4868252;29;20464;-87
2022/06/07 12:41:56;;;;;;;1.50;1.40;;;28.60;33.70;;;;;;4892102;29;20512;-87
2022/06/07 12:44:28;;;;;;;1.17;1.07;;;28.70;33.60;;;;;;4876387;29;20463;-87
2022/06/07 12:46:56;;;;;;;1.50;1.40;;;28.60;32.10;;;;;;4891423;29;20456;-87
2022/06/07 12:49:27;;;;;;;1.63;1.30;;;28.60;32.00;;;;;;4873110;29;20456;-87
2022/06/07 12:51:59;;;;;;;2.00;1.20;;;28.80;33.00;;;;;;4875189;29;20475;-89
2022/06/07 12:54:28;;;;;;;2.17;1.00;;;28.60;32.00;;;;;;4866448;29;20455;-87
2022/06/07 12:56:59;;;;;;;1.90;1.20;;;28.30;32.50;;;;;;4892066;29;20516;-87
2022/06/07 12:59:34;;;;;;;1.10;1.00;;;28.30;33.00;;;;;;4891667;29;20453;-88
2022/06/07 13:02:02;;;;;;;1.20;1.10;;;28.10;32.10;;;;;;4892344;29;20487;-88
2022/06/07 13:04:35;;;;;;;1.30;1.20;;;28.10;32.20;;;;;;4883898;29;21147;-87
2022/06/07 13:07:16;;;;;;;1.93;1.37;;;27.70;32.50;;;;;;4893027;29;20531;-87
2022/06/07 13:09:45;;;;;;;1.10;1.00;;;27.80;32.40;;;;;;4875898;29;20460;-88
2022/06/07 13:12:18;;;;;;;2.13;1.10;;;27.80;32.60;;;;;;4878225;29;20499;-89
2022/06/07 13:14:46;;;;;;;2.33;1.00;;;28.30;32.30;;;;;;4875023;29;20463;-87
2022/06/07 13:17:15;;;;;;;1.30;0.90;;;28.80;31.10;;;;;;4874691;29;20467;-89
2022/06/07 13:19:45;;;;;;;1.10;1.00;;;28.70;30.50;;;;;;4891218;29;20459;-88
2022/06/07 13:22:16;;;;;;;1.83;1.10;;;28.80;29.70;;;;;;4892823;29;20499;-88
2022/06/07 13:24:45;;;;;;;3.37;1.17;;;29.00;32.10;;;;;;4886453;29;20455;-88
2022/06/07 13:27:48;;;;;;;2.70;1.17;;;29.30;31.20;;;;;;4895887;29;20455;-89
2022/06/07 13:30:27;;;;;;;1.13;1.00;;;29.40;30.00;;;;;;4895749;29;20459;-89
2022/06/07 13:33:16;;;;;;;2.63;1.20;;;29.30;31.20;;;;;;4896119;29;21295;-88
2022/06/07 13:35:49;;;;;;;1.00;0.90;;;29.00;31.40;;;;;;4877411;29;20466;-88